createdAt,value
2023-03-26T00:03:18.434Z,3.40
2023-03-26T00:08:20.417Z,3.50
2023-03-26T00:13:22.190Z,3.90
2023-03-26T00:18:29.917Z,3.90
2023-03-26T00:23:34.857Z,3.40
2023-03-26T00:28:37.853Z,5.00
2023-03-26T00:33:41.032Z,4.80
2023-03-26T00:43:46.254Z,3.30
2023-03-26T00:48:48.140Z,3.50
2023-03-26T00:53:50.858Z,3.10
2023-03-26T00:58:53.018Z,3.30
2023-03-26T01:04:07.294Z,2.90
2023-03-26T01:09:21.796Z,3.30
2023-03-26T01:14:26.409Z,3.70
2023-03-26T01:19:37.586Z,3.70
2023-03-26T01:24:40.371Z,4.30
2023-03-26T01:30:12.884Z,4.40
2023-03-26T01:35:33.216Z,4.10
2023-03-26T01:40:42.257Z,4.00
2023-03-26T01:45:47.489Z,4.30
2023-03-26T01:50:53.058Z,3.50
2023-03-26T01:56:19.710Z,3.80
2023-03-26T02:01:44.688Z,4.00
2023-03-26T02:06:58.177Z,3.40
2023-03-26T02:17:02.961Z,3.60
2023-03-26T02:22:04.931Z,3.40
2023-03-26T02:27:11.828Z,3.70
2023-03-26T02:32:14.112Z,3.40
2023-03-26T02:37:18.650Z,4.30
2023-03-26T02:42:20.630Z,4.40
2023-03-26T02:47:22.836Z,4.00
2023-03-26T02:52:24.547Z,4.20
2023-03-26T02:57:26.408Z,4.10
2023-03-26T03:02:28.867Z,4.50
2023-03-26T03:07:31.344Z,4.70
2023-03-26T03:12:33.015Z,4.20
2023-03-26T03:17:34.947Z,4.90
2023-03-26T03:22:37.282Z,5.00
2023-03-26T03:27:39.777Z,5.00
2023-03-26T03:32:41.762Z,4.90
2023-03-26T03:37:43.842Z,5.20
2023-03-26T03:42:46.438Z,5.50
2023-03-26T03:47:48.553Z,5.50
2023-03-26T03:52:50.392Z,5.20
2023-03-26T03:57:52.065Z,6.00
2023-03-26T04:02:54.033Z,5.70
2023-03-26T04:07:55.922Z,6.40
2023-03-26T04:12:57.795Z,7.00
2023-03-26T04:17:59.597Z,6.10
2023-03-26T04:23:01.344Z,5.30
2023-03-26T04:28:06.914Z,5.20
2023-03-26T04:33:14.834Z,5.50
2023-03-26T04:38:18.033Z,5.80
2023-03-26T04:48:22.509Z,5.20
2023-03-26T04:53:24.894Z,5.40
2023-03-26T04:58:32.194Z,5.40
2023-03-26T05:03:34.085Z,5.20
2023-03-26T05:08:36.061Z,5.40
2023-03-26T05:13:38.234Z,5.60
2023-03-26T05:18:40.417Z,5.60
2023-03-26T05:23:42.197Z,5.10
2023-03-26T05:28:43.967Z,6.00
2023-03-26T05:33:46.082Z,5.30
2023-03-26T05:38:49.192Z,5.20
2023-03-26T05:48:53.731Z,5.80
2023-03-26T05:53:55.506Z,5.40
2023-03-26T05:58:57.384Z,5.40
2023-03-26T06:03:59.143Z,5.10
2023-03-26T06:09:02.843Z,4.40
2023-03-26T06:14:06.595Z,4.90
2023-03-26T06:19:08.844Z,4.20
2023-03-26T06:24:11.082Z,4.00
2023-03-26T06:29:14.374Z,3.70
2023-03-26T06:34:16.356Z,3.10
2023-03-26T06:39:19.359Z,3.30
2023-03-26T06:44:21.340Z,2.60
2023-03-26T06:49:23.321Z,2.70
2023-03-26T06:54:25.397Z,2.90
2023-03-26T06:59:27.385Z,3.00
2023-03-26T07:04:29.497Z,2.70
2023-03-26T07:09:32.364Z,2.70
2023-03-26T07:14:34.345Z,2.80
2023-03-26T07:19:36.747Z,2.70
2023-03-26T07:24:39.235Z,3.10
2023-03-26T07:29:53.695Z,3.10
2023-03-26T07:34:58.660Z,2.70
2023-03-26T07:40:13.029Z,2.80
2023-03-26T07:45:42.619Z,2.50
2023-03-26T07:50:45.540Z,2.70
2023-03-26T07:56:00.372Z,2.60
2023-03-26T08:01:22.581Z,2.80
2023-03-26T08:06:35.328Z,2.20
2023-03-26T08:11:40.561Z,2.60
2023-03-26T08:16:51.653Z,2.50
2023-03-26T08:22:02.884Z,2.40
2023-03-26T08:27:37.492Z,2.00
2023-03-26T08:32:40.533Z,2.30
2023-03-26T08:37:45.240Z,2.10
2023-03-26T08:43:19.169Z,2.20
2023-03-26T08:48:59.558Z,2.00
2023-03-26T08:54:23.654Z,2.10
2023-03-26T09:00:08.017Z,2.10
2023-03-26T09:05:44.305Z,2.20
2023-03-26T09:11:05.633Z,1.90
2023-03-26T09:16:53.182Z,1.90
2023-03-26T09:22:37.561Z,6.40
2023-03-26T09:28:29.417Z,1.50
2023-03-26T09:33:53.504Z,1.60
2023-03-26T09:39:08.933Z,1.30
2023-03-26T09:44:23.577Z,1.30
2023-03-26T09:49:25.564Z,1.40
2023-03-26T09:54:36.856Z,1.60
2023-03-26T09:59:58.907Z,1.30
2023-03-26T10:05:20.543Z,1.30
2023-03-26T10:10:42.588Z,1.20
2023-03-26T10:15:57.583Z,1.40
2023-03-26T10:21:30.280Z,1.20
2023-03-26T10:27:08.705Z,1.00
2023-03-26T10:32:43.989Z,1.40
2023-03-26T10:38:03.254Z,1.20
2023-03-26T10:43:19.624Z,1.30
2023-03-26T10:48:54.003Z,1.40
2023-03-26T10:54:00.615Z,5.30
2023-03-26T10:59:07.895Z,1.60
2023-03-26T11:04:31.198Z,1.40
2023-03-26T11:09:52.308Z,1.40
2023-03-26T11:15:13.454Z,1.20
2023-03-26T11:20:38.153Z,1.30
2023-03-26T11:25:49.662Z,1.40
2023-03-26T11:31:00.529Z,1.50
2023-03-26T11:36:17.939Z,1.50
2023-03-26T11:41:23.318Z,1.30
2023-03-26T11:46:27.453Z,1.10
2023-03-26T11:51:33.352Z,1.20
2023-03-26T11:57:05.411Z,1.10
2023-03-26T12:02:09.813Z,1.00
2023-03-26T12:07:24.632Z,1.00
2023-03-26T12:12:37.981Z,1.30
2023-03-26T12:17:41.925Z,0.80
2023-03-26T12:22:47.795Z,1.20
2023-03-26T12:27:52.619Z,1.20
2023-03-26T12:33:03.404Z,1.80
2023-03-26T12:38:35.604Z,1.70
2023-03-26T12:44:51.260Z,1.30
2023-03-26T12:49:11.033Z,1.20
2023-03-26T12:54:23.458Z,1.20
2023-03-26T12:59:40.297Z,1.10
2023-03-26T13:05:13.963Z,1.00
2023-03-26T13:10:26.587Z,1.00
2023-03-26T13:15:39.224Z,2.10
2023-03-26T13:21:21.240Z,1.70
2023-03-26T13:26:54.330Z,2.10
2023-03-26T13:32:05.770Z,2.70
2023-03-26T13:37:28.828Z,1.40
2023-03-26T13:42:55.523Z,1.50
2023-03-26T13:48:02.894Z,2.80
2023-03-26T13:53:07.543Z,3.30
2023-03-26T13:58:22.109Z,3.30
2023-03-26T14:03:46.855Z,3.40
2023-03-26T14:08:57.841Z,3.30
2023-03-26T14:14:12.286Z,2.10
2023-03-26T14:19:43.042Z,1.60
2023-03-26T14:25:25.307Z,1.50
2023-03-26T14:30:57.995Z,1.50
2023-03-26T14:36:08.175Z,1.50
2023-03-26T14:41:25.220Z,1.60
2023-03-26T14:46:36.096Z,1.50
2023-03-26T14:51:50.622Z,3.00
2023-03-26T14:56:53.691Z,2.20
2023-03-26T15:07:32.813Z,1.50
2023-03-26T15:12:48.210Z,1.50
2023-03-26T15:17:50.320Z,1.80
2023-03-26T15:23:20.948Z,16.50
2023-03-26T15:28:58.760Z,52.10
2023-03-26T15:34:38.721Z,2.30
2023-03-26T15:40:10.091Z,27.80
2023-03-26T15:45:35.843Z,18.40
2023-03-26T15:51:18.560Z,3.20
2023-03-26T15:56:32.701Z,2.80
2023-03-26T16:02:02.153Z,3.60
2023-03-26T16:07:29.728Z,4.50
2023-03-26T16:12:54.855Z,21.30
2023-03-26T16:18:06.141Z,13.20
2023-03-26T16:23:47.896Z,4.20
2023-03-26T16:28:52.551Z,17.00
2023-03-26T16:34:21.814Z,24.80
2023-03-26T16:39:39.580Z,40.80
2023-03-26T16:45:22.510Z,10.50
2023-03-26T16:50:46.941Z,36.90
2023-03-26T16:56:48.660Z,24.20
2023-03-26T17:02:05.544Z,15.50
2023-03-26T17:07:16.412Z,21.60
2023-03-26T17:12:34.202Z,37.10
2023-03-26T17:18:04.282Z,30.50
2023-03-26T17:23:16.560Z,14.50
2023-03-26T17:29:02.025Z,54.60
2023-03-26T17:34:32.370Z,174.60
2023-03-26T17:39:42.148Z,152.40
2023-03-26T17:44:49.024Z,93.00
2023-03-26T17:50:10.578Z,106.70
2023-03-26T17:55:32.983Z,211.20
2023-03-26T18:00:44.981Z,94.40
2023-03-26T18:05:50.058Z,54.30
2023-03-26T18:11:14.918Z,47.50
2023-03-26T18:16:27.243Z,26.80
2023-03-26T18:21:39.904Z,9.50
2023-03-26T18:26:55.956Z,4.70
2023-03-26T18:32:13.382Z,6.80
2023-03-26T18:37:19.207Z,12.90
2023-03-26T18:42:26.163Z,14.80
2023-03-26T18:47:32.870Z,16.50
2023-03-26T18:52:37.353Z,5.90
2023-03-26T19:02:42.349Z,502.70
2023-03-26T19:07:47.227Z,741.90
2023-03-26T19:12:57.640Z,166.70
2023-03-26T19:18:14.381Z,71.20
2023-03-26T19:23:21.279Z,33.20
2023-03-26T19:28:29.149Z,12.30
2023-03-26T19:33:37.981Z,19.60
2023-03-26T19:38:51.703Z,7.90
2023-03-26T19:44:00.217Z,5.90
2023-03-26T19:49:04.288Z,9.50
2023-03-26T19:54:16.055Z,4.40
2023-03-26T19:59:17.924Z,9.00
2023-03-26T20:04:20.615Z,5.80
2023-03-26T20:14:27.045Z,5.20
2023-03-26T20:19:30.339Z,5.00
2023-03-26T20:29:37.264Z,6.40
2023-03-26T20:34:39.546Z,4.60
2023-03-26T20:39:41.622Z,12.20
2023-03-26T20:44:43.400Z,3.90
2023-03-26T20:49:45.481Z,6.90
2023-03-26T20:54:47.354Z,5.40
2023-03-26T20:59:49.571Z,11.00
2023-03-26T21:04:53.602Z,4.90
2023-03-26T21:10:00.435Z,31.80
2023-03-26T21:15:16.716Z,7.00
2023-03-26T21:20:25.085Z,5.70
2023-03-26T21:25:49.414Z,6.50
2023-03-26T21:30:52.122Z,11.90
2023-03-26T21:35:57.013Z,4.50
2023-03-26T21:41:03.130Z,21.50
2023-03-26T21:46:05.872Z,42.40
2023-03-26T21:51:10.700Z,44.40
2023-03-26T21:56:31.948Z,27.50
2023-03-26T22:01:47.022Z,35.30
2023-03-26T22:06:58.922Z,11.60
2023-03-26T22:12:01.808Z,13.30
2023-03-26T22:17:04.917Z,7.80
2023-03-26T22:22:06.587Z,12.50
2023-03-26T22:27:08.464Z,13.40
2023-03-26T22:32:10.242Z,7.60
2023-03-26T22:37:13.142Z,7.90
2023-03-26T22:42:15.433Z,7.30
2023-03-26T22:47:17.098Z,7.20
2023-03-26T22:52:18.874Z,7.90
2023-03-26T22:57:21.779Z,10.10
2023-03-26T23:02:23.609Z,5.90
2023-03-26T23:07:25.534Z,4.20
2023-03-26T23:12:27.509Z,3.50
2023-03-26T23:17:29.609Z,3.10
2023-03-26T23:22:32.087Z,2.50
2023-03-26T23:27:34.986Z,4.00
2023-03-26T23:32:37.399Z,3.20
2023-03-26T23:37:41.711Z,3.40
2023-03-26T23:42:43.712Z,4.20
2023-03-26T23:47:46.305Z,3.70
2023-03-26T23:52:48.187Z,9.30
2023-03-26T23:57:49.835Z,14.30
